createdAt,value
2023-02-23T00:01:57.147Z,46.13
2023-02-23T00:04:25.103Z,53.57
2023-02-23T00:06:53.324Z,45.27
2023-02-23T00:09:23.436Z,47.93
2023-02-23T00:11:51.470Z,46.33
2023-02-23T00:14:18.473Z,58.63
2023-02-23T00:16:45.413Z,49.70
2023-02-23T00:19:14.027Z,50.43
2023-02-23T00:21:41.575Z,50.30
2023-02-23T00:24:11.374Z,48.93
2023-02-23T00:26:39.715Z,56.17
2023-02-23T00:29:11.373Z,52.23
2023-02-23T00:31:38.915Z,50.00
2023-02-23T00:34:07.529Z,56.77
2023-02-23T00:36:35.605Z,54.20
2023-02-23T00:39:11.814Z,57.40
2023-02-23T00:41:38.519Z,54.37
2023-02-23T00:44:05.247Z,51.07
2023-02-23T00:46:32.119Z,54.10
2023-02-23T00:48:59.625Z,45.80
2023-02-23T00:51:30.953Z,51.50
2023-02-23T00:53:59.623Z,44.20
2023-02-23T00:56:27.389Z,60.10
2023-02-23T00:58:55.030Z,56.33
2023-02-23T01:01:22.587Z,54.70
2023-02-23T01:03:49.528Z,57.47
2023-02-23T01:06:17.592Z,66.90
2023-02-23T01:08:50.298Z,68.87
2023-02-23T01:11:23.196Z,66.00
2023-02-23T01:13:59.166Z,79.23
2023-02-23T01:16:29.047Z,62.90
2023-02-23T01:18:58.339Z,84.83
2023-02-23T01:21:33.803Z,73.90
2023-02-23T01:24:02.296Z,65.63
2023-02-23T01:26:34.043Z,65.30
2023-02-23T01:29:05.023Z,67.13
2023-02-23T01:31:31.959Z,69.27
2023-02-23T01:34:00.909Z,68.37
2023-02-23T01:36:31.288Z,65.90
2023-02-23T01:39:00.099Z,79.20
2023-02-23T01:41:28.609Z,81.50
2023-02-23T01:44:08.004Z,78.20
2023-02-23T01:46:40.275Z,64.03
2023-02-23T01:49:12.272Z,64.93
2023-02-23T01:51:43.813Z,76.53
2023-02-23T01:54:16.014Z,77.63
2023-02-23T01:56:47.409Z,87.20
2023-02-23T01:59:15.674Z,102.80
2023-02-23T02:01:43.767Z,91.10
2023-02-23T02:04:16.848Z,86.27
2023-02-23T02:06:46.943Z,90.63
2023-02-23T02:09:17.521Z,88.00
2023-02-23T02:11:46.409Z,81.90
2023-02-23T02:14:15.599Z,90.60
2023-02-23T02:16:45.097Z,83.77
2023-02-23T02:19:39.188Z,80.63
2023-02-23T02:22:30.852Z,79.30
2023-02-23T02:24:57.552Z,79.33
2023-02-23T02:27:47.289Z,74.57
2023-02-23T02:30:23.157Z,71.47
2023-02-23T02:33:11.049Z,82.80
2023-02-23T02:35:56.195Z,80.20
2023-02-23T02:38:53.784Z,81.43
2023-02-23T02:41:42.412Z,89.77
2023-02-23T02:44:23.460Z,78.30
2023-02-23T02:46:57.429Z,81.80
2023-02-23T02:49:45.301Z,83.27
2023-02-23T02:52:16.481Z,99.00
2023-02-23T02:54:53.561Z,80.83
2023-02-23T02:57:24.175Z,90.50
2023-02-23T03:00:09.781Z,83.57
2023-02-23T03:02:57.654Z,83.77
2023-02-23T03:06:00.251Z,82.80
2023-02-23T03:09:03.715Z,97.43
2023-02-23T03:11:59.586Z,95.57
2023-02-23T03:14:45.092Z,92.50
2023-02-23T03:17:42.390Z,83.03
2023-02-23T03:20:43.099Z,98.50
2023-02-23T03:23:47.278Z,95.37
2023-02-23T03:26:55.740Z,91.87
2023-02-23T03:30:04.295Z,98.43
2023-02-23T03:33:12.777Z,97.87
2023-02-23T03:36:28.647Z,93.93
2023-02-23T03:39:44.921Z,98.03
2023-02-23T03:42:37.871Z,101.37
2023-02-23T03:45:28.988Z,95.70
2023-02-23T03:48:16.925Z,97.23
2023-02-23T03:51:08.617Z,106.67
2023-02-23T03:54:11.704Z,105.97
2023-02-23T03:57:02.978Z,102.13
2023-02-23T03:59:52.937Z,100.03
2023-02-23T04:02:40.096Z,112.10
2023-02-23T04:05:32.264Z,113.00
2023-02-23T04:08:21.701Z,107.67
2023-02-23T04:11:25.926Z,105.23
2023-02-23T04:13:57.143Z,98.80
2023-02-23T04:16:23.864Z,114.73
2023-02-23T04:18:50.638Z,109.57
2023-02-23T04:21:17.714Z,114.90
2023-02-23T04:23:44.599Z,105.93
2023-02-23T04:26:11.291Z,114.07
2023-02-23T04:28:37.954Z,112.23
2023-02-23T04:31:04.937Z,124.07
2023-02-23T04:33:31.679Z,122.47
2023-02-23T04:35:58.358Z,123.80
2023-02-23T04:38:25.100Z,116.80
2023-02-23T04:40:51.869Z,126.17
2023-02-23T04:43:18.658Z,129.33
2023-02-23T04:45:45.660Z,144.90
2023-02-23T04:48:12.576Z,136.37
2023-02-23T04:53:21.694Z,145.93
2023-02-23T04:55:48.379Z,143.60
2023-02-23T04:58:15.820Z,137.37
2023-02-23T05:00:42.657Z,148.60
2023-02-23T05:03:09.793Z,137.43
2023-02-23T05:05:36.949Z,153.37
2023-02-23T05:08:03.884Z,148.40
2023-02-23T05:10:30.577Z,154.80
2023-02-23T05:12:58.127Z,151.03
2023-02-23T05:15:24.788Z,154.03
2023-02-23T05:17:51.480Z,151.70
2023-02-23T05:20:18.264Z,153.03
2023-02-23T05:22:45.038Z,159.97
2023-02-23T05:25:11.929Z,168.20
2023-02-23T05:27:39.163Z,155.83
2023-02-23T05:30:07.904Z,168.77
2023-02-23T05:32:35.193Z,164.83
2023-02-23T05:35:02.612Z,166.07
2023-02-23T05:37:29.292Z,174.83
2023-02-23T05:39:56.051Z,183.53
2023-02-23T05:42:22.822Z,166.67
2023-02-23T05:44:49.549Z,182.30
2023-02-23T05:47:16.297Z,183.57
2023-02-23T05:49:43.145Z,184.83
2023-02-23T05:52:09.812Z,163.83
2023-02-23T05:54:36.474Z,169.87
2023-02-23T05:57:03.226Z,161.97
2023-02-23T05:59:29.937Z,168.93
2023-02-23T06:01:56.666Z,192.20
2023-02-23T06:04:24.222Z,186.20
2023-02-23T06:06:51.063Z,187.43
2023-02-23T06:09:17.800Z,193.23
2023-02-23T06:11:44.644Z,211.57
2023-02-23T06:14:11.628Z,194.63
2023-02-23T06:16:39.298Z,190.20
2023-02-23T06:19:06.269Z,195.93
2023-02-23T06:21:33.285Z,207.27
2023-02-23T06:24:00.704Z,203.70
2023-02-23T06:26:27.938Z,196.70
2023-02-23T06:28:55.600Z,202.70
2023-02-23T06:31:22.465Z,207.47
2023-02-23T06:33:49.343Z,204.83
2023-02-23T06:36:16.377Z,217.43
2023-02-23T06:38:43.486Z,209.93
2023-02-23T06:41:11.713Z,214.80
2023-02-23T06:43:38.490Z,212.43
2023-02-23T06:46:06.444Z,198.23
2023-02-23T06:48:33.400Z,196.20
2023-02-23T06:51:00.345Z,204.23
2023-02-23T06:53:27.404Z,233.10
2023-02-23T06:55:54.059Z,203.90
2023-02-23T06:58:20.920Z,206.00
2023-02-23T07:00:47.656Z,213.13
2023-02-23T07:03:14.430Z,212.43
2023-02-23T07:05:41.197Z,202.97
2023-02-23T07:08:07.993Z,202.50
2023-02-23T07:10:35.109Z,193.63
2023-02-23T07:13:01.932Z,202.87
2023-02-23T07:15:28.824Z,198.10
2023-02-23T07:17:55.490Z,207.33
2023-02-23T07:20:22.274Z,199.07
2023-02-23T07:22:48.997Z,207.97
2023-02-23T07:25:15.820Z,198.40
2023-02-23T07:27:42.602Z,179.90
2023-02-23T07:30:10.238Z,207.20
2023-02-23T07:32:37.063Z,202.70
2023-02-23T07:35:05.141Z,186.10
2023-02-23T07:37:32.190Z,193.23
2023-02-23T07:40:01.030Z,192.90
2023-02-23T07:42:28.142Z,196.07
2023-02-23T07:44:54.921Z,184.27
2023-02-23T07:47:23.029Z,195.67
2023-02-23T07:49:49.853Z,190.73
2023-02-23T07:52:19.621Z,192.07
2023-02-23T07:54:46.452Z,201.37
2023-02-23T07:57:13.201Z,194.07
2023-02-23T07:59:39.978Z,197.10
2023-02-23T08:02:07.096Z,194.10
2023-02-23T08:04:33.876Z,198.57
2023-02-23T08:07:00.637Z,190.27
2023-02-23T08:09:27.452Z,188.47
2023-02-23T08:11:54.271Z,177.07
2023-02-23T08:14:23.610Z,192.90
2023-02-23T08:16:51.747Z,187.43
2023-02-23T08:19:18.880Z,180.13
2023-02-23T08:21:45.739Z,177.37
2023-02-23T08:24:12.422Z,188.67
2023-02-23T08:26:39.113Z,179.00
2023-02-23T08:29:05.891Z,195.10
2023-02-23T08:31:33.181Z,180.10
2023-02-23T08:34:00.268Z,175.97
2023-02-23T08:36:27.348Z,183.43
2023-02-23T08:38:57.515Z,164.90
2023-02-23T08:41:25.518Z,176.00
2023-02-23T08:43:52.271Z,181.93
2023-02-23T08:46:20.595Z,181.37
2023-02-23T08:48:47.340Z,164.37
2023-02-23T08:51:17.114Z,171.77
2023-02-23T08:53:43.910Z,168.07
2023-02-23T08:56:11.022Z,174.20
2023-02-23T08:58:37.856Z,165.57
2023-02-23T09:01:05.551Z,165.13
2023-02-23T09:03:35.232Z,162.97
2023-02-23T09:06:10.373Z,164.20
2023-02-23T09:08:37.595Z,152.80
2023-02-23T09:11:04.399Z,155.73
2023-02-23T09:13:31.327Z,155.73
2023-02-23T09:15:58.325Z,149.80
2023-02-23T09:18:27.852Z,153.87
2023-02-23T09:20:54.608Z,150.63
2023-02-23T09:23:21.432Z,144.03
2023-02-23T09:25:48.246Z,153.17
2023-02-23T09:28:16.944Z,146.40
2023-02-23T09:30:44.787Z,138.00
2023-02-23T09:33:12.111Z,126.73
2023-02-23T09:35:39.938Z,127.40
2023-02-23T09:38:08.090Z,123.63
2023-02-23T09:40:50.071Z,123.40
2023-02-23T09:43:25.541Z,121.03
2023-02-23T09:46:22.634Z,128.63
2023-02-23T09:48:49.567Z,124.80
2023-02-23T09:51:21.092Z,115.20
2023-02-23T09:53:49.985Z,133.13
2023-02-23T09:56:40.628Z,122.67
2023-02-23T09:59:12.862Z,122.53
2023-02-23T10:01:48.950Z,124.17
2023-02-23T10:04:46.965Z,116.07
2023-02-23T10:07:46.306Z,125.23
2023-02-23T10:10:26.210Z,125.33
2023-02-23T10:13:17.092Z,110.50
2023-02-23T10:15:57.674Z,134.90
2023-02-23T10:18:30.679Z,154.77
2023-02-23T10:21:13.219Z,142.60
2023-02-23T10:23:49.222Z,143.63
2023-02-23T10:26:19.813Z,135.23
2023-02-23T10:28:46.986Z,148.50
2023-02-23T10:31:25.079Z,156.20
2023-02-23T10:33:54.934Z,150.97
2023-02-23T10:36:42.587Z,142.97
2023-02-23T10:39:12.392Z,142.83
2023-02-23T10:41:40.047Z,140.63
2023-02-23T10:44:17.839Z,153.30
2023-02-23T10:46:48.163Z,154.50
2023-02-23T10:49:26.428Z,158.57
2023-02-23T10:51:55.765Z,146.27
2023-02-23T10:54:58.127Z,151.73
2023-02-23T10:57:29.146Z,154.17
2023-02-23T11:00:19.376Z,141.37
2023-02-23T11:02:48.143Z,141.63
2023-02-23T11:05:45.414Z,154.63
2023-02-23T11:08:21.225Z,139.90
2023-02-23T11:11:15.714Z,162.83
2023-02-23T11:13:44.420Z,155.43
2023-02-23T11:16:18.103Z,146.87
2023-02-23T11:18:56.515Z,152.77
2023-02-23T11:21:34.845Z,140.30
2023-02-23T11:24:15.333Z,132.13
2023-02-23T11:26:44.572Z,140.50
2023-02-23T11:29:29.465Z,129.63
2023-02-23T11:31:58.158Z,128.67
2023-02-23T11:34:31.403Z,128.60
2023-02-23T11:37:04.422Z,135.83
2023-02-23T11:39:31.952Z,127.87
2023-02-23T11:42:26.746Z,118.70
2023-02-23T11:45:12.175Z,129.40
2023-02-23T11:47:40.884Z,136.87
2023-02-23T11:50:20.058Z,140.00
2023-02-23T11:52:47.626Z,136.93
2023-02-23T11:55:19.593Z,138.80
2023-02-23T11:57:49.655Z,116.83
2023-02-23T12:00:25.052Z,131.33
2023-02-23T12:02:58.718Z,127.13
2023-02-23T12:05:31.019Z,122.40
2023-02-23T12:08:14.711Z,129.47
2023-02-23T12:10:51.696Z,119.10
2023-02-23T12:13:33.145Z,121.30
2023-02-23T12:16:18.852Z,117.53
2023-02-23T12:18:58.475Z,118.50
2023-02-23T12:21:40.527Z,129.20
2023-02-23T12:24:33.961Z,136.20
2023-02-23T12:27:06.406Z,132.30
2023-02-23T12:29:39.493Z,138.40
2023-02-23T12:32:17.972Z,130.40
2023-02-23T12:35:23.672Z,129.17
2023-02-23T12:38:27.648Z,146.20
2023-02-23T12:41:16.309Z,137.40
2023-02-23T12:43:59.866Z,136.07
2023-02-23T12:46:37.672Z,140.23
2023-02-23T12:49:17.451Z,150.97
2023-02-23T12:51:55.230Z,135.57
2023-02-23T12:54:21.930Z,149.23
2023-02-23T12:56:55.508Z,149.73
2023-02-23T12:59:37.894Z,130.37
2023-02-23T13:02:16.413Z,134.43
2023-02-23T13:05:15.422Z,129.23
2023-02-23T13:08:12.529Z,139.70
2023-02-23T13:10:58.583Z,130.27
2023-02-23T13:13:43.932Z,130.10
2023-02-23T13:16:25.653Z,130.33
2023-02-23T13:19:18.680Z,116.07
2023-02-23T13:21:55.860Z,113.77
2023-02-23T13:24:26.934Z,108.00
2023-02-23T13:27:07.045Z,107.10
2023-02-23T13:29:38.955Z,105.70
2023-02-23T13:32:15.480Z,111.57
2023-02-23T13:34:53.160Z,107.40
2023-02-23T13:37:35.138Z,99.80
2023-02-23T13:40:42.477Z,103.37
2023-02-23T13:43:40.210Z,100.10
2023-02-23T13:46:30.324Z,109.53
2023-02-23T13:49:16.914Z,85.90
2023-02-23T13:51:52.117Z,80.53
2023-02-23T13:54:30.586Z,80.10
2023-02-23T13:57:01.434Z,76.53
2023-02-23T13:59:45.398Z,71.57
2023-02-23T14:02:30.750Z,69.80
2023-02-23T14:05:03.371Z,76.70
2023-02-23T14:07:32.294Z,77.93
2023-02-23T14:10:06.558Z,70.87
2023-02-23T14:12:40.803Z,66.63
2023-02-23T14:15:25.587Z,60.43
2023-02-23T14:18:18.468Z,52.60
2023-02-23T14:20:54.034Z,50.50
2023-02-23T14:23:20.943Z,51.40
2023-02-23T14:25:47.724Z,51.83
2023-02-23T14:28:30.728Z,50.57
2023-02-23T14:31:20.393Z,65.47
2023-02-23T14:33:49.125Z,47.37
2023-02-23T14:36:21.939Z,49.17
2023-02-23T14:38:57.606Z,51.40
2023-02-23T14:41:27.185Z,45.77
2023-02-23T14:43:59.985Z,47.90
2023-02-23T14:46:27.865Z,43.40
2023-02-23T14:49:10.279Z,38.10
2023-02-23T14:52:01.792Z,54.07
2023-02-23T14:54:32.792Z,46.40
2023-02-23T14:57:02.183Z,36.10
2023-02-23T14:59:37.209Z,43.23
2023-02-23T15:02:10.480Z,40.03
2023-02-23T15:04:38.795Z,44.00
2023-02-23T15:07:06.606Z,44.90
2023-02-23T15:09:39.564Z,41.87
2023-02-23T15:12:20.176Z,45.63
2023-02-23T15:14:52.146Z,43.50
2023-02-23T15:17:23.138Z,39.40
2023-02-23T15:20:14.294Z,43.33
2023-02-23T15:22:43.261Z,52.37
2023-02-23T15:25:16.944Z,59.13
2023-02-23T15:27:45.717Z,52.60
2023-02-23T15:30:31.714Z,49.33
2023-02-23T15:33:04.929Z,52.30
2023-02-23T15:35:42.364Z,55.10
2023-02-23T15:38:17.958Z,51.63
2023-02-23T15:40:55.937Z,57.92
2023-02-23T15:43:23.316Z,53.90
2023-02-23T15:45:52.959Z,51.10
2023-02-23T15:48:26.401Z,54.60
2023-02-23T15:50:57.638Z,47.27
2023-02-23T15:53:41.181Z,53.23
2023-02-23T15:56:25.558Z,48.83
2023-02-23T15:58:57.380Z,84.70
2023-02-23T16:01:30.291Z,52.00
2023-02-23T16:04:16.088Z,44.33
2023-02-23T16:06:56.132Z,53.60
2023-02-23T16:09:27.020Z,53.30
2023-02-23T16:12:03.048Z,53.87
2023-02-23T16:14:46.246Z,43.20
2023-02-23T16:17:21.646Z,46.80
2023-02-23T16:19:48.616Z,62.47
2023-02-23T16:22:26.797Z,44.47
2023-02-23T16:25:07.530Z,49.80
2023-02-23T16:27:36.870Z,53.27
2023-02-23T16:30:24.094Z,44.83
2023-02-23T16:33:10.500Z,46.47
2023-02-23T16:35:45.323Z,45.23
2023-02-23T16:38:22.710Z,48.23
2023-02-23T16:40:49.628Z,49.30
2023-02-23T16:43:16.513Z,46.63
2023-02-23T16:45:43.690Z,50.60
2023-02-23T16:48:15.401Z,58.03
2023-02-23T16:50:42.566Z,65.83
2023-02-23T16:53:11.396Z,58.17
2023-02-23T16:55:48.547Z,58.50
2023-02-23T16:58:22.010Z,63.70
2023-02-23T17:00:49.016Z,58.67
2023-02-23T17:03:27.981Z,62.60
2023-02-23T17:05:56.103Z,64.43
2023-02-23T17:08:24.408Z,66.13
2023-02-23T17:10:54.244Z,58.03
2023-02-23T17:13:23.637Z,53.90
2023-02-23T17:15:53.687Z,58.53
2023-02-23T17:18:31.378Z,63.73
2023-02-23T17:21:00.150Z,85.47
2023-02-23T17:23:30.052Z,76.47
2023-02-23T17:25:57.491Z,94.50
2023-02-23T17:28:25.716Z,84.50
2023-02-23T17:30:52.464Z,73.57
2023-02-23T17:33:19.301Z,90.60
2023-02-23T17:35:46.814Z,93.00
2023-02-23T17:38:14.949Z,77.83
2023-02-23T17:40:41.714Z,109.27
2023-02-23T17:43:08.690Z,86.83
2023-02-23T17:45:35.477Z,90.93
2023-02-23T17:48:02.231Z,91.30
2023-02-23T17:50:28.991Z,92.27
2023-02-23T17:52:56.461Z,91.30
2023-02-23T17:55:24.564Z,79.80
2023-02-23T17:57:51.344Z,96.57
2023-02-23T18:00:19.108Z,90.40
2023-02-23T18:02:46.176Z,106.67
2023-02-23T18:05:14.187Z,85.13
2023-02-23T18:07:41.148Z,97.53
2023-02-23T18:10:09.145Z,88.97
2023-02-23T18:12:35.976Z,103.17
2023-02-23T18:15:03.110Z,94.73
2023-02-23T18:17:32.451Z,86.70
2023-02-23T18:19:59.764Z,92.70
2023-02-23T18:22:26.551Z,91.27
2023-02-23T18:24:53.675Z,97.10
2023-02-23T18:27:20.506Z,91.93
2023-02-23T18:29:47.404Z,94.23
2023-02-23T18:32:14.212Z,84.23
2023-02-23T18:34:41.025Z,88.77
2023-02-23T18:37:10.238Z,89.37
2023-02-23T18:39:37.193Z,91.10
2023-02-23T18:42:04.650Z,91.47
2023-02-23T18:44:34.068Z,105.13
2023-02-23T18:47:02.425Z,83.33
2023-02-23T18:49:29.239Z,83.27
2023-02-23T18:51:56.103Z,97.80
2023-02-23T18:54:25.902Z,86.30
2023-02-23T18:56:55.246Z,88.50
2023-02-23T18:59:22.044Z,87.80
2023-02-23T19:01:49.114Z,94.67
2023-02-23T19:04:16.198Z,84.97
2023-02-23T19:06:45.020Z,85.73
2023-02-23T19:09:14.363Z,109.87
2023-02-23T19:11:43.116Z,103.70
2023-02-23T19:14:16.017Z,97.40
2023-02-23T19:16:43.586Z,45.63
2023-02-23T19:19:10.947Z,32.43
2023-02-23T19:21:38.056Z,22.10
2023-02-23T19:24:05.919Z,30.40
2023-02-23T19:26:33.729Z,27.80
2023-02-23T19:29:00.956Z,23.00
2023-02-23T19:31:28.614Z,23.33
2023-02-23T19:33:56.878Z,26.93
2023-02-23T19:36:30.754Z,33.67
2023-02-23T19:39:10.221Z,29.07
2023-02-23T19:41:38.923Z,31.90
2023-02-23T19:44:05.905Z,37.10
2023-02-23T19:46:32.683Z,25.33
2023-02-23T19:48:59.971Z,38.43
2023-02-23T19:51:27.127Z,30.33
2023-02-23T19:53:55.274Z,29.23
2023-02-23T19:56:24.640Z,25.47
2023-02-23T19:58:52.571Z,35.67
2023-02-23T20:01:22.043Z,39.87
2023-02-23T20:03:55.519Z,31.97
2023-02-23T20:06:25.680Z,37.10
2023-02-23T20:08:52.680Z,41.43
2023-02-23T20:11:20.247Z,28.40
2023-02-23T20:13:47.258Z,36.50
2023-02-23T20:16:15.145Z,26.90
2023-02-23T20:18:42.294Z,44.33
2023-02-23T20:21:18.463Z,47.93
2023-02-23T20:23:47.212Z,32.33
2023-02-23T20:26:19.884Z,32.63
2023-02-23T20:28:46.978Z,37.83
2023-02-23T20:31:20.712Z,29.83
2023-02-23T20:33:50.949Z,31.70
2023-02-23T20:36:19.194Z,33.53
2023-02-23T20:38:46.131Z,36.90
2023-02-23T20:41:12.846Z,37.80
2023-02-23T20:43:40.144Z,32.70
2023-02-23T20:46:07.514Z,30.70
2023-02-23T20:48:35.406Z,40.93
2023-02-23T20:51:02.528Z,35.20
2023-02-23T20:53:30.023Z,34.53
2023-02-23T20:55:56.952Z,36.27
2023-02-23T20:58:24.979Z,37.30
2023-02-23T21:00:56.940Z,37.00
2023-02-23T21:03:27.510Z,37.70
2023-02-23T21:05:54.671Z,41.33
2023-02-23T21:08:21.681Z,35.37
2023-02-23T21:10:50.183Z,39.93
2023-02-23T21:13:18.186Z,33.23
2023-02-23T21:15:58.488Z,40.17
2023-02-23T21:18:25.579Z,36.60
2023-02-23T21:20:52.319Z,40.37
2023-02-23T21:23:21.450Z,27.47
2023-02-23T21:25:48.905Z,29.50
2023-02-23T21:28:15.667Z,37.40
2023-02-23T21:30:42.387Z,36.60
2023-02-23T21:33:09.241Z,41.67
2023-02-23T21:35:38.268Z,30.93
2023-02-23T21:38:05.095Z,29.10
2023-02-23T21:40:31.918Z,21.40
2023-02-23T21:42:58.690Z,26.60
2023-02-23T21:45:25.414Z,24.23
2023-02-23T21:47:52.156Z,29.03
2023-02-23T21:50:19.684Z,32.87
2023-02-23T21:52:48.644Z,42.60
2023-02-23T21:55:21.521Z,35.30
2023-02-23T22:15:28.465Z,38.33
2023-02-23T22:17:56.298Z,29.67
2023-02-23T22:20:23.205Z,45.20
2023-02-23T22:22:52.683Z,37.70
2023-02-23T22:25:20.179Z,35.67
2023-02-23T22:27:47.277Z,53.60
2023-02-23T22:30:15.121Z,27.23
2023-02-23T22:32:42.634Z,48.90
2023-02-23T22:35:10.228Z,43.13
2023-02-23T22:37:37.072Z,28.43
2023-02-23T22:40:16.803Z,35.90
2023-02-23T22:42:49.819Z,49.33
2023-02-23T22:45:17.582Z,35.23
2023-02-23T22:47:44.462Z,39.10
2023-02-23T22:50:18.087Z,32.37
2023-02-23T22:52:46.168Z,25.90
2023-02-23T22:55:13.112Z,38.47
2023-02-23T22:57:40.204Z,35.73
2023-02-23T23:00:10.552Z,37.37
2023-02-23T23:02:37.305Z,36.67
2023-02-23T23:05:04.357Z,39.20
2023-02-23T23:07:31.444Z,33.70
2023-02-23T23:09:58.726Z,39.77
2023-02-23T23:12:27.866Z,40.60
2023-02-23T23:14:56.076Z,35.10
2023-02-23T23:17:23.296Z,32.70
2023-02-23T23:19:50.141Z,31.27
2023-02-23T23:22:17.377Z,29.77
2023-02-23T23:24:46.193Z,31.87
2023-02-23T23:27:14.665Z,42.50
2023-02-23T23:29:45.692Z,31.10
2023-02-23T23:32:17.233Z,38.23
2023-02-23T23:34:48.770Z,42.53
2023-02-23T23:37:19.737Z,38.90
2023-02-23T23:39:46.496Z,33.93
2023-02-23T23:42:13.668Z,34.40
2023-02-23T23:44:40.357Z,32.37
2023-02-23T23:47:07.019Z,37.87
2023-02-23T23:49:38.583Z,27.50
2023-02-23T23:52:06.004Z,34.77
2023-02-23T23:54:38.892Z,28.93
2023-02-23T23:57:07.157Z,39.97
2023-02-23T23:59:35.329Z,25.93
